createdAt,value
2023-03-19T00:02:17.549Z,9.37
2023-03-19T00:04:47.670Z,9.30
2023-03-19T00:07:16.781Z,9.90
2023-03-19T00:09:44.739Z,10.90
2023-03-19T00:12:13.089Z,10.13
2023-03-19T00:14:41.615Z,9.53
2023-03-19T00:17:09.579Z,11.03
2023-03-19T00:19:37.293Z,10.97
2023-03-19T00:22:07.716Z,9.50
2023-03-19T00:24:35.674Z,11.00
2023-03-19T00:27:03.690Z,10.77
2023-03-19T00:29:32.191Z,11.00
2023-03-19T00:31:59.940Z,11.27
2023-03-19T00:34:28.155Z,10.10
2023-03-19T00:36:56.580Z,9.47
2023-03-19T00:39:25.757Z,9.60
2023-03-19T00:41:53.499Z,10.43
2023-03-19T00:44:21.674Z,10.40
2023-03-19T00:46:49.490Z,9.50
2023-03-19T00:49:17.293Z,10.70
2023-03-19T00:51:46.259Z,9.83
2023-03-19T00:54:14.804Z,10.57
2023-03-19T00:56:44.376Z,12.37
2023-03-19T00:59:12.093Z,11.57
2023-03-19T01:01:39.953Z,10.70
2023-03-19T01:04:08.250Z,11.47
2023-03-19T01:06:36.039Z,11.40
2023-03-19T01:09:03.815Z,11.47
2023-03-19T01:11:32.626Z,11.23
2023-03-19T01:14:02.649Z,11.40
2023-03-19T01:16:30.422Z,12.40
2023-03-19T01:18:58.893Z,10.93
2023-03-19T01:21:27.330Z,12.13
2023-03-19T01:23:55.149Z,10.80
2023-03-19T01:26:23.300Z,11.40
2023-03-19T01:28:51.125Z,9.97
2023-03-19T01:31:22.072Z,10.90
2023-03-19T01:33:50.412Z,10.33
2023-03-19T01:36:18.176Z,10.30
2023-03-19T01:38:46.407Z,9.37
2023-03-19T01:41:14.572Z,10.83
2023-03-19T01:43:42.954Z,11.30
2023-03-19T01:46:19.306Z,11.60
2023-03-19T01:48:51.201Z,10.87
2023-03-19T01:51:22.236Z,11.60
2023-03-19T01:53:54.741Z,10.13
2023-03-19T01:56:25.257Z,10.57
2023-03-19T01:58:58.935Z,10.53
2023-03-19T02:01:29.736Z,11.20
2023-03-19T02:04:00.999Z,10.20
2023-03-19T02:06:30.675Z,10.40
2023-03-19T02:08:59.045Z,10.00
2023-03-19T02:11:28.455Z,10.53
2023-03-19T02:13:56.298Z,10.77
2023-03-19T02:16:24.106Z,10.97
2023-03-19T02:18:53.860Z,10.27
2023-03-19T02:21:24.166Z,11.63
2023-03-19T02:24:01.206Z,9.93
2023-03-19T02:26:31.946Z,10.97
2023-03-19T02:28:59.735Z,10.40
2023-03-19T02:31:28.451Z,10.27
2023-03-19T02:34:01.265Z,10.80
2023-03-19T02:36:35.105Z,9.70
2023-03-19T02:39:07.255Z,9.57
2023-03-19T02:41:40.336Z,10.83
2023-03-19T02:44:11.764Z,10.07
2023-03-19T02:46:39.637Z,9.00
2023-03-19T02:49:07.881Z,11.37
2023-03-19T02:51:37.475Z,10.43
2023-03-19T02:54:05.958Z,11.30
2023-03-19T02:56:34.775Z,10.10
2023-03-19T02:59:04.478Z,10.30
2023-03-19T03:01:32.340Z,10.87
2023-03-19T03:04:00.621Z,10.37
2023-03-19T03:06:28.678Z,11.03
2023-03-19T03:08:56.467Z,11.03
2023-03-19T03:11:24.640Z,11.77
2023-03-19T03:13:52.391Z,10.30
2023-03-19T03:16:21.685Z,10.20
2023-03-19T03:18:50.285Z,9.60
2023-03-19T03:21:20.119Z,9.53
2023-03-19T03:23:48.141Z,11.30
2023-03-19T03:26:16.597Z,9.07
2023-03-19T03:28:44.768Z,10.00
2023-03-19T03:31:13.677Z,9.10
2023-03-19T03:33:43.277Z,10.60
2023-03-19T03:36:12.344Z,9.17
2023-03-19T03:38:40.615Z,9.50
2023-03-19T03:41:08.837Z,10.27
2023-03-19T03:43:36.581Z,10.00
2023-03-19T03:46:04.969Z,10.00
2023-03-19T03:48:33.099Z,9.20
2023-03-19T03:51:03.199Z,10.27
2023-03-19T03:53:31.365Z,9.60
2023-03-19T03:55:59.521Z,8.53
2023-03-19T03:58:27.957Z,9.50
2023-03-19T04:00:56.642Z,8.10
2023-03-19T04:03:24.996Z,9.17
2023-03-19T04:05:52.972Z,9.00
2023-03-19T04:08:22.859Z,9.30
2023-03-19T04:10:51.078Z,9.60
2023-03-19T04:13:18.906Z,9.50
2023-03-19T04:15:46.667Z,10.23
2023-03-19T04:18:15.262Z,9.20
2023-03-19T04:20:43.625Z,9.67
2023-03-19T04:23:11.841Z,8.93
2023-03-19T04:25:42.680Z,8.40
2023-03-19T04:28:10.707Z,10.43
2023-03-19T04:30:39.001Z,9.87
2023-03-19T04:33:07.610Z,10.10
2023-03-19T04:35:36.379Z,10.40
2023-03-19T04:38:05.004Z,9.20
2023-03-19T04:40:33.318Z,9.70
2023-03-19T04:43:02.809Z,10.03
2023-03-19T04:45:31.798Z,10.50
2023-03-19T04:48:00.503Z,8.83
2023-03-19T04:50:29.257Z,12.40
2023-03-19T04:52:58.502Z,9.97
2023-03-19T04:55:26.551Z,9.57
2023-03-19T04:57:54.645Z,10.53
2023-03-19T05:00:24.934Z,10.60
2023-03-19T05:02:52.782Z,9.83
2023-03-19T05:05:20.747Z,9.10
2023-03-19T05:07:49.394Z,10.20
2023-03-19T05:10:17.527Z,10.37
2023-03-19T05:12:45.528Z,10.87
2023-03-19T05:15:14.221Z,10.80
2023-03-19T05:17:44.050Z,11.10
2023-03-19T05:20:12.966Z,10.07
2023-03-19T05:22:41.878Z,10.40
2023-03-19T05:25:10.169Z,12.77
2023-03-19T05:27:38.095Z,9.40
2023-03-19T05:30:07.766Z,10.07
2023-03-19T05:32:35.635Z,10.77
2023-03-19T05:35:05.658Z,11.83
2023-03-19T05:37:34.211Z,10.83
2023-03-19T05:40:02.209Z,10.63
2023-03-19T05:42:30.159Z,10.47
2023-03-19T05:45:01.920Z,10.80
2023-03-19T05:47:29.782Z,10.00
2023-03-19T05:49:58.294Z,10.07
2023-03-19T05:52:28.364Z,9.50
2023-03-19T05:54:56.673Z,10.30
2023-03-19T05:57:24.925Z,10.20
2023-03-19T05:59:53.715Z,9.57
2023-03-19T06:02:22.051Z,10.50
2023-03-19T06:04:50.538Z,10.53
2023-03-19T06:07:18.416Z,11.50
2023-03-19T06:09:47.747Z,11.00
2023-03-19T06:12:17.041Z,9.87
2023-03-19T06:14:44.865Z,10.30
2023-03-19T06:17:12.837Z,11.10
2023-03-19T06:19:41.165Z,9.10
2023-03-19T06:22:09.508Z,9.53
2023-03-19T06:24:37.520Z,10.33
2023-03-19T06:27:07.711Z,10.73
2023-03-19T06:29:35.678Z,9.37
2023-03-19T06:32:04.681Z,10.77
2023-03-19T06:34:33.019Z,10.93
2023-03-19T06:37:01.107Z,10.10
2023-03-19T06:39:29.741Z,10.70
2023-03-19T06:41:57.668Z,9.63
2023-03-19T06:44:27.461Z,10.80
2023-03-19T06:46:56.177Z,10.07
2023-03-19T06:49:24.076Z,9.40
2023-03-19T06:51:52.536Z,10.50
2023-03-19T06:54:20.918Z,9.63
2023-03-19T06:56:49.105Z,9.70
2023-03-19T06:59:16.918Z,9.40
2023-03-19T07:01:47.355Z,11.13
2023-03-19T07:04:15.468Z,9.20
2023-03-19T07:06:43.475Z,10.13
2023-03-19T07:09:12.079Z,9.47
2023-03-19T07:11:40.157Z,10.20
2023-03-19T07:14:08.137Z,9.50
2023-03-19T07:16:36.733Z,9.70
2023-03-19T07:19:06.045Z,9.90
2023-03-19T07:21:34.191Z,10.47
2023-03-19T07:24:02.543Z,9.33
2023-03-19T07:26:30.648Z,10.30
2023-03-19T07:28:58.605Z,10.43
2023-03-19T07:31:27.140Z,9.97
2023-03-19T07:33:55.047Z,9.70
2023-03-19T07:36:24.945Z,10.27
2023-03-19T07:38:53.010Z,10.40
2023-03-19T07:41:21.417Z,10.10
2023-03-19T07:43:49.792Z,10.23
2023-03-19T07:46:18.152Z,9.80
2023-03-19T07:48:47.084Z,9.43
2023-03-19T07:51:15.029Z,9.83
2023-03-19T07:53:44.759Z,8.73
2023-03-19T07:56:13.820Z,9.80
2023-03-19T07:58:42.327Z,9.30
2023-03-19T08:01:10.230Z,9.00
2023-03-19T08:03:39.076Z,9.50
2023-03-19T08:06:07.271Z,9.57
2023-03-19T08:08:36.396Z,10.07
2023-03-19T08:11:06.978Z,11.23
2023-03-19T08:13:34.860Z,8.47
2023-03-19T08:16:03.627Z,8.83
2023-03-19T08:18:31.597Z,9.60
2023-03-19T08:20:59.508Z,9.73
2023-03-19T08:23:28.560Z,8.30
2023-03-19T08:25:57.122Z,9.10
2023-03-19T08:28:26.460Z,8.97
2023-03-19T08:30:56.299Z,8.23
2023-03-19T08:33:24.850Z,9.27
2023-03-19T08:35:53.413Z,8.90
2023-03-19T08:38:21.892Z,9.07
2023-03-19T08:40:49.901Z,8.97
2023-03-19T08:43:17.785Z,9.47
2023-03-19T08:45:47.538Z,10.70
2023-03-19T08:48:15.412Z,9.90
2023-03-19T08:50:43.356Z,10.23
2023-03-19T08:53:11.688Z,10.50
2023-03-19T08:55:40.319Z,9.27
2023-03-19T08:58:08.262Z,9.40
2023-03-19T09:00:37.091Z,9.87
2023-03-19T09:03:06.922Z,10.20
2023-03-19T09:05:35.009Z,10.40
2023-03-19T09:08:03.867Z,12.17
2023-03-19T09:10:31.909Z,8.70
2023-03-19T09:12:59.985Z,10.47
2023-03-19T09:15:28.550Z,9.33
2023-03-19T09:17:56.884Z,10.47
2023-03-19T09:20:26.400Z,7.67
2023-03-19T09:22:55.034Z,8.80
2023-03-19T09:25:23.344Z,7.50
2023-03-19T09:27:51.645Z,6.87
2023-03-19T09:30:20.127Z,7.60
2023-03-19T09:32:48.107Z,7.70
2023-03-19T09:35:16.208Z,7.00
2023-03-19T09:37:46.023Z,7.80
2023-03-19T09:40:22.998Z,6.40
2023-03-19T09:43:02.250Z,7.83
2023-03-19T09:45:30.897Z,6.90
2023-03-19T09:48:07.286Z,6.70
2023-03-19T09:50:36.532Z,5.70
2023-03-19T09:53:14.427Z,4.83
2023-03-19T09:55:45.645Z,5.90
2023-03-19T09:58:17.506Z,5.33
2023-03-19T10:00:49.106Z,4.10
2023-03-19T10:03:32.632Z,3.73
2023-03-19T10:06:15.221Z,3.60
2023-03-19T10:08:58.724Z,4.70
2023-03-19T10:11:39.723Z,4.00
2023-03-19T10:14:23.839Z,4.00
2023-03-19T10:16:55.610Z,15.87
2023-03-19T10:19:31.194Z,2.97
2023-03-19T10:22:03.688Z,2.90
2023-03-19T10:24:37.242Z,3.23
2023-03-19T10:27:14.150Z,3.10
2023-03-19T10:29:43.000Z,3.10
2023-03-19T10:32:19.588Z,2.77
2023-03-19T10:34:50.881Z,2.50
2023-03-19T10:37:21.594Z,2.67
2023-03-19T10:39:53.644Z,2.87
2023-03-19T10:42:48.721Z,3.50
2023-03-19T10:45:26.705Z,2.87
2023-03-19T10:47:56.177Z,3.13
2023-03-19T10:50:31.921Z,2.70
2023-03-19T10:53:07.741Z,3.80
2023-03-19T10:55:37.698Z,2.90
2023-03-19T10:58:18.510Z,3.10
2023-03-19T11:00:48.520Z,3.67
2023-03-19T11:03:32.099Z,2.93
2023-03-19T11:06:17.666Z,2.53
2023-03-19T11:08:53.549Z,2.97
2023-03-19T11:11:28.013Z,2.60
2023-03-19T11:13:56.112Z,2.90
2023-03-19T11:16:24.603Z,2.70
2023-03-19T11:18:53.252Z,2.30
2023-03-19T11:21:29.166Z,2.43
2023-03-19T11:24:03.389Z,2.73
2023-03-19T11:26:32.929Z,2.43
2023-03-19T11:29:05.664Z,2.40
2023-03-19T11:31:40.685Z,2.53
2023-03-19T11:34:21.464Z,2.30
2023-03-19T11:36:58.215Z,2.97
2023-03-19T11:39:34.479Z,2.40
2023-03-19T11:42:28.096Z,2.73
2023-03-19T11:45:10.809Z,2.17
2023-03-19T11:47:47.892Z,2.67
2023-03-19T11:50:23.177Z,2.03
2023-03-19T11:53:05.720Z,2.40
2023-03-19T11:55:42.719Z,2.03
2023-03-19T11:58:45.793Z,2.97
2023-03-19T12:01:26.963Z,2.30
2023-03-19T12:04:21.907Z,2.03
2023-03-19T12:07:01.392Z,2.70
2023-03-19T12:09:35.607Z,2.73
2023-03-19T12:12:15.074Z,2.43
2023-03-19T12:14:56.169Z,2.27
2023-03-19T12:17:38.476Z,2.77
2023-03-19T12:20:23.418Z,2.43
2023-03-19T12:23:07.022Z,2.17
2023-03-19T12:25:46.797Z,2.93
2023-03-19T12:28:24.985Z,2.40
2023-03-19T12:31:15.518Z,2.27
2023-03-19T12:33:48.828Z,2.23
2023-03-19T12:36:22.353Z,2.40
2023-03-19T12:38:55.450Z,2.23
2023-03-19T12:41:26.132Z,1.97
2023-03-19T12:44:00.122Z,1.97
2023-03-19T12:46:34.719Z,2.37
2023-03-19T12:49:08.338Z,2.60
2023-03-19T12:51:40.629Z,2.57
2023-03-19T12:54:15.031Z,2.30
2023-03-19T12:56:50.536Z,1.93
2023-03-19T12:59:26.792Z,2.60
2023-03-19T13:02:02.860Z,2.40
2023-03-19T13:04:34.887Z,2.13
2023-03-19T13:07:07.302Z,2.37
2023-03-19T13:09:41.156Z,2.00
2023-03-19T13:12:14.250Z,1.73
2023-03-19T13:14:51.730Z,2.23
2023-03-19T13:17:28.898Z,2.63
2023-03-19T13:19:58.104Z,1.97
2023-03-19T13:22:29.613Z,2.33
2023-03-19T13:25:00.165Z,2.13
2023-03-19T13:27:32.730Z,2.60
2023-03-19T13:30:07.986Z,2.30
2023-03-19T13:32:42.622Z,1.60
2023-03-19T13:35:24.486Z,1.77
2023-03-19T13:37:58.633Z,1.97
2023-03-19T13:40:46.195Z,1.63
2023-03-19T13:43:40.953Z,1.40
2023-03-19T13:46:41.226Z,2.20
2023-03-19T13:49:35.807Z,1.77
2023-03-19T13:52:50.974Z,2.07
2023-03-19T13:55:32.904Z,1.40
2023-03-19T13:58:18.286Z,1.97
2023-03-19T14:01:01.351Z,1.40
2023-03-19T14:03:32.721Z,1.30
2023-03-19T14:06:01.846Z,1.20
2023-03-19T14:08:35.863Z,1.10
2023-03-19T14:11:05.886Z,1.17
2023-03-19T14:13:40.026Z,1.10
2023-03-19T14:16:16.105Z,1.40
2023-03-19T14:18:45.783Z,1.20
2023-03-19T14:21:21.415Z,1.20
2023-03-19T14:23:57.871Z,1.00
2023-03-19T14:26:29.427Z,1.00
2023-03-19T14:29:03.002Z,1.70
2023-03-19T14:31:43.728Z,1.33
2023-03-19T14:34:22.401Z,1.67
2023-03-19T14:36:57.322Z,1.20
2023-03-19T14:39:29.921Z,1.67
2023-03-19T14:42:04.170Z,1.30
2023-03-19T14:45:17.392Z,1.10
2023-03-19T14:48:02.113Z,1.00
2023-03-19T14:51:05.845Z,1.20
2023-03-19T14:53:42.279Z,1.30
2023-03-19T14:56:16.500Z,1.43
2023-03-19T14:58:52.686Z,1.73
2023-03-19T15:01:23.112Z,1.43
2023-03-19T15:03:56.153Z,1.60
2023-03-19T15:06:25.052Z,1.37
2023-03-19T15:08:53.520Z,1.60
2023-03-19T15:11:48.513Z,1.80
2023-03-19T15:14:43.707Z,1.33
2023-03-19T15:17:20.178Z,1.60
2023-03-19T15:19:48.559Z,1.50
2023-03-19T15:22:21.984Z,1.50
2023-03-19T15:24:50.856Z,1.83
2023-03-19T15:27:23.554Z,1.70
2023-03-19T15:29:53.550Z,1.57
2023-03-19T15:33:04.375Z,1.73
2023-03-19T15:35:28.660Z,1.53
2023-03-19T15:38:01.878Z,1.87
2023-03-19T15:40:32.815Z,1.77
2023-03-19T15:43:04.208Z,1.60
2023-03-19T15:45:35.013Z,1.90
2023-03-19T15:48:08.042Z,1.60
2023-03-19T15:50:42.944Z,1.77
2023-03-19T15:53:16.895Z,2.10
2023-03-19T15:55:45.256Z,1.57
2023-03-19T15:58:19.496Z,1.57
2023-03-19T16:00:47.738Z,1.63
2023-03-19T16:03:20.468Z,1.50
2023-03-19T16:05:59.903Z,1.47
2023-03-19T16:08:29.505Z,2.60
2023-03-19T16:11:13.950Z,1.83
2023-03-19T16:13:54.675Z,1.83
2023-03-19T16:16:24.975Z,1.60
2023-03-19T16:18:56.082Z,2.40
2023-03-19T16:21:29.729Z,1.93
2023-03-19T16:24:01.768Z,1.37
2023-03-19T16:26:37.469Z,1.80
2023-03-19T16:29:18.488Z,2.27
2023-03-19T16:31:51.826Z,2.83
2023-03-19T16:34:32.573Z,1.97
2023-03-19T16:37:01.535Z,2.87
2023-03-19T16:39:35.445Z,2.33
2023-03-19T16:42:28.160Z,2.30
2023-03-19T16:44:58.825Z,2.00
2023-03-19T16:47:27.253Z,2.53
2023-03-19T16:49:55.657Z,2.47
2023-03-19T16:52:25.599Z,2.80
2023-03-19T16:54:55.753Z,2.80
2023-03-19T16:57:24.022Z,2.10
2023-03-19T16:59:53.124Z,1.90
2023-03-19T17:02:23.152Z,2.53
2023-03-19T17:04:51.360Z,2.30
2023-03-19T17:07:19.715Z,2.50
2023-03-19T17:09:48.471Z,2.37
2023-03-19T17:12:18.621Z,2.53
2023-03-19T17:14:49.262Z,3.13
2023-03-19T17:17:20.292Z,2.87
2023-03-19T17:19:51.918Z,3.13
